La Costa Gdns Homes, Puerto Rico
Current Conditions -  °F | °C
As of 9:17 PM on Tuesday 21 Oct 2014 (Local Time) from TJNR Reporting Station
Broken Clouds Broken Clouds  
Wind Chill: 80°   Ceiling: 3200
Heat Index: 85°   Visibility: 10mi
Dew Point: 75°   Wind: 3mph
Humidity: 85%   Direction: 80°E
Pressure: 29.98"   Gusts: NA
Location:  18.3304°N, 65.6573°W
Report Text: TJNR 220117Z AUTO 08003KT 10SM SCT024 BKN032 BKN047 27/24 A2998 RMK AO2 T02670239
Loading
Personal Weather Stations






























Interactive Weather Map
Tropical Storm Tracking
New forecast layout! Learn more

10-Day Weather Forecast

Advertisements
Track Severe Weather on mobile